aviador You're here:

UUYY Decoded Metar

SYKTYVKAR in RUSSIA
Report Time2018-05-25 20:30:00
UTC Time2018-05-25 20:44:32
Flight Rules vfr VFR
Wind230° at 6 kt
W.Decomp.*RWY 19: 5.5 kt HW 2.4 kt RCW
W.Rank230° ranks 10
Current wind is above 230° avg. (5.9)
Visibility9999 m
Phenomena:N/A
Clouds:N/A
Expected CloudBase > 1,600 ft AGL from Temp-Dew spread
CeilingNone
Temp01°C (ISA -13)
Dew Point-3°C (75% RH)
AAT-3.5°C
QNH1028 hPa
Density Alt-1,663 ft
Elevation390 ft
Report Wrong Elevation
Raw Report
UUYY 252030Z 23003MPS CAVOK 01/M03 Q1028 R36/CLRD61 NOSIG RMK
QFE762/1016=

Extra information for UUYY:More info

Metar Taf Metar & Taf Last 4 Metars F.Rules Stats Wind Profile Meteogram Temp Stats Airport Information Weather charts Add Link Nearby VenuesMetar ALERT Operation Metar Decoded Social comments